createdAt,value
2023-04-03T00:01:52.317Z,7.12
2023-04-03T00:04:18.819Z,7.07
2023-04-03T00:06:45.478Z,7.03
2023-04-03T00:09:11.963Z,7.01
2023-04-03T00:11:38.472Z,7.01
2023-04-03T00:14:05.110Z,7.02
2023-04-03T00:16:31.642Z,7.00
2023-04-03T00:18:58.149Z,6.97
2023-04-03T00:21:24.708Z,6.96
2023-04-03T00:23:51.189Z,6.94
2023-04-03T00:26:17.659Z,6.94
2023-04-03T00:28:44.301Z,6.97
2023-04-03T00:31:11.045Z,6.95
2023-04-03T00:33:37.600Z,6.92
2023-04-03T00:36:09.059Z,6.89
2023-04-03T00:38:35.986Z,6.84
2023-04-03T00:41:02.727Z,6.81
2023-04-03T00:43:29.517Z,6.81
2023-04-03T00:45:58.383Z,6.79
2023-04-03T00:48:39.602Z,6.76
2023-04-03T00:51:09.886Z,6.71
2023-04-03T00:53:59.508Z,6.70
2023-04-03T00:56:29.065Z,6.67
2023-04-03T00:59:17.808Z,6.63
2023-04-03T01:01:45.040Z,6.63
2023-04-03T01:04:46.906Z,6.59
2023-04-03T01:07:21.160Z,6.57
2023-04-03T01:09:50.752Z,6.55
2023-04-03T01:12:18.852Z,6.52
2023-04-03T01:14:46.614Z,6.50
2023-04-03T01:17:50.267Z,6.48
2023-04-03T01:20:37.887Z,6.48
2023-04-03T01:23:11.146Z,6.50
2023-04-03T01:25:47.378Z,6.50
2023-04-03T01:28:26.551Z,6.52
2023-04-03T01:31:11.560Z,6.53
2023-04-03T01:33:38.962Z,6.54
2023-04-03T01:36:06.357Z,6.54
2023-04-03T01:38:33.074Z,6.54
2023-04-03T01:40:59.557Z,6.52
2023-04-03T01:43:26.053Z,6.49
2023-04-03T01:45:52.562Z,6.46
2023-04-03T01:48:19.164Z,6.43
2023-04-03T01:50:45.620Z,6.40
2023-04-03T01:53:12.182Z,6.38
2023-04-03T01:55:38.729Z,6.38
2023-04-03T01:58:05.337Z,6.37
2023-04-03T02:00:31.983Z,6.36
2023-04-03T02:02:58.495Z,6.38
2023-04-03T02:05:25.026Z,6.39
2023-04-03T02:07:51.481Z,6.38
2023-04-03T02:10:18.009Z,6.38
2023-04-03T02:12:44.438Z,6.36
2023-04-03T02:15:11.099Z,6.36
2023-04-03T02:17:37.684Z,6.34
2023-04-03T02:20:05.503Z,6.32
2023-04-03T02:22:32.291Z,6.31
2023-04-03T02:24:58.782Z,6.30
2023-04-03T02:27:25.335Z,6.29
2023-04-03T02:29:51.841Z,6.27
2023-04-03T02:32:18.450Z,6.25
2023-04-03T02:34:44.986Z,6.23
2023-04-03T02:37:11.474Z,6.23
2023-04-03T02:39:37.985Z,6.25
2023-04-03T02:42:04.886Z,6.25
2023-04-03T02:44:31.351Z,6.23
2023-04-03T02:46:57.913Z,6.19
2023-04-03T02:49:24.451Z,6.17
2023-04-03T02:51:51.085Z,6.17
2023-04-03T02:54:17.798Z,6.17
2023-04-03T02:56:44.291Z,6.14
2023-04-03T02:59:10.822Z,6.09
2023-04-03T03:01:37.333Z,6.07
2023-04-03T03:04:04.000Z,6.04
2023-04-03T03:06:30.528Z,6.01
2023-04-03T03:08:57.083Z,5.98
2023-04-03T03:11:23.553Z,5.95
2023-04-03T03:13:50.025Z,5.92
2023-04-03T03:16:16.525Z,5.87
2023-04-03T03:18:43.198Z,5.83
2023-04-03T03:21:11.170Z,5.81
2023-04-03T03:23:37.736Z,5.77
2023-04-03T03:26:06.967Z,5.73
2023-04-03T03:28:33.979Z,5.71
2023-04-03T03:31:00.566Z,5.67
2023-04-03T03:33:27.388Z,5.63
2023-04-03T03:35:55.048Z,5.59
2023-04-03T03:38:22.139Z,5.55
2023-04-03T03:40:49.870Z,5.51
2023-04-03T03:43:17.007Z,5.48
2023-04-03T03:45:43.807Z,5.44
2023-04-03T03:48:10.380Z,5.41
2023-04-03T03:50:36.912Z,5.41
2023-04-03T03:53:03.452Z,5.39
2023-04-03T03:55:30.033Z,5.39
2023-04-03T03:57:56.528Z,5.38
2023-04-03T04:00:23.154Z,5.36
2023-04-03T04:02:49.744Z,5.32
2023-04-03T04:05:16.333Z,5.31
2023-04-03T04:07:42.838Z,5.26
2023-04-03T04:10:09.926Z,5.22
2023-04-03T04:12:36.425Z,5.19
2023-04-03T04:15:03.840Z,5.15
2023-04-03T04:17:30.450Z,5.11
2023-04-03T04:19:56.907Z,5.08
2023-04-03T04:22:23.386Z,5.07
2023-04-03T04:24:49.876Z,5.07
2023-04-03T04:27:16.378Z,5.06
2023-04-03T04:29:42.883Z,5.06
2023-04-03T04:32:09.361Z,5.04
2023-04-03T04:34:35.839Z,4.99
2023-04-03T04:37:02.391Z,4.95
2023-04-03T04:39:28.979Z,4.91
2023-04-03T04:41:55.487Z,4.88
2023-04-03T04:44:22.087Z,4.84
2023-04-03T04:46:48.547Z,4.82
2023-04-03T04:49:18.225Z,4.82
2023-04-03T04:51:51.986Z,4.83
2023-04-03T04:54:19.240Z,4.82
2023-04-03T04:56:46.058Z,4.78
2023-04-03T04:59:12.706Z,4.78
2023-04-03T05:01:39.333Z,4.76
2023-04-03T05:04:05.939Z,4.76
2023-04-03T05:06:32.452Z,4.76
2023-04-03T05:08:59.768Z,4.78
2023-04-03T05:11:26.265Z,4.77
2023-04-03T05:13:52.836Z,4.77
2023-04-03T05:16:19.383Z,4.76
2023-04-03T05:18:46.063Z,4.79
2023-04-03T05:21:12.751Z,4.85
2023-04-03T05:23:39.729Z,4.91
2023-04-03T05:26:06.318Z,4.98
2023-04-03T05:28:32.830Z,5.04
2023-04-03T05:30:59.918Z,5.09
2023-04-03T05:33:27.022Z,5.13
2023-04-03T05:35:54.548Z,5.15
2023-04-03T05:38:21.227Z,5.19
2023-04-03T05:40:47.766Z,5.20
2023-04-03T05:43:14.509Z,5.21
2023-04-03T05:45:41.136Z,5.21
2023-04-03T05:48:07.764Z,5.20
2023-04-03T05:50:34.290Z,5.20
2023-04-03T05:53:02.851Z,5.22
2023-04-03T05:55:29.489Z,5.26
2023-04-03T05:57:55.979Z,5.31
2023-04-03T06:00:22.609Z,5.38
2023-04-03T06:02:49.475Z,5.46
2023-04-03T06:05:16.191Z,5.51
2023-04-03T06:07:42.678Z,5.54
2023-04-03T06:10:09.464Z,5.56
2023-04-03T06:12:36.072Z,5.58
2023-04-03T06:15:02.632Z,5.63
2023-04-03T06:17:29.216Z,5.68
2023-04-03T06:19:55.748Z,5.74
2023-04-03T06:22:22.312Z,5.83
2023-04-03T06:24:48.783Z,5.91
2023-04-03T06:27:15.372Z,6.02
2023-04-03T06:29:41.880Z,6.06
2023-04-03T06:32:08.460Z,6.14
2023-04-03T06:34:35.052Z,6.23
2023-04-03T06:37:01.700Z,6.30
2023-04-03T06:39:28.366Z,6.36
2023-04-03T06:41:57.853Z,6.40
2023-04-03T06:44:24.691Z,6.42
2023-04-03T06:46:51.321Z,6.45
2023-04-03T06:49:17.958Z,6.50
2023-04-03T06:51:44.682Z,6.57
2023-04-03T06:54:11.331Z,6.62
2023-04-03T06:56:38.243Z,6.65
2023-04-03T06:59:04.952Z,6.68
2023-04-03T07:01:32.101Z,6.70
2023-04-03T07:04:01.434Z,6.74
2023-04-03T07:06:28.172Z,6.81
2023-04-03T07:08:55.466Z,6.89
2023-04-03T07:11:22.018Z,6.98
2023-04-03T07:13:48.523Z,7.12
2023-04-03T07:16:15.055Z,7.21
2023-04-03T07:18:41.567Z,7.27
2023-04-03T07:21:08.710Z,7.35
2023-04-03T07:23:35.290Z,7.43
2023-04-03T07:26:01.843Z,7.55
2023-04-03T07:28:28.429Z,7.66
2023-04-03T07:31:06.879Z,7.78
2023-04-03T07:33:33.711Z,7.92
2023-04-03T07:36:00.450Z,8.06
2023-04-03T07:38:27.616Z,8.17
2023-04-03T07:40:54.241Z,8.28
2023-04-03T07:43:22.524Z,8.32
2023-04-03T07:45:50.122Z,8.34
2023-04-03T07:48:24.689Z,8.42
2023-04-03T07:50:51.883Z,8.57
2023-04-03T07:53:19.066Z,8.69
2023-04-03T07:55:49.899Z,8.79
2023-04-03T07:58:19.134Z,8.90
2023-04-03T08:00:46.602Z,9.02
2023-04-03T08:03:17.316Z,9.15
2023-04-03T08:05:50.098Z,9.22
2023-04-03T08:08:21.370Z,9.28
2023-04-03T08:10:53.551Z,9.30
2023-04-03T08:13:23.143Z,9.33
2023-04-03T08:15:49.951Z,9.44
2023-04-03T08:18:16.764Z,9.58
2023-04-03T08:20:44.469Z,9.65
2023-04-03T08:23:11.476Z,9.60
2023-04-03T08:25:42.208Z,9.59
2023-04-03T08:28:09.773Z,9.61
2023-04-03T08:30:36.312Z,9.66
2023-04-03T08:33:04.099Z,9.72
2023-04-03T08:35:31.266Z,9.73
2023-04-03T08:37:57.837Z,9.73
2023-04-03T08:40:24.523Z,9.68
2023-04-03T08:42:51.056Z,9.72
2023-04-03T08:45:33.150Z,9.75
2023-04-03T08:48:07.150Z,9.81
2023-04-03T08:50:41.068Z,9.90
2023-04-03T08:53:15.093Z,9.99
2023-04-03T08:55:46.561Z,10.09
2023-04-03T08:58:16.929Z,10.18
2023-04-03T09:00:58.895Z,10.16
2023-04-03T09:03:26.098Z,10.23
2023-04-03T09:05:52.778Z,10.35
2023-04-03T09:08:29.457Z,10.46
2023-04-03T09:11:22.668Z,10.49
2023-04-03T09:14:00.612Z,10.63
2023-04-03T09:16:27.128Z,10.85
2023-04-03T09:19:03.512Z,11.08
2023-04-03T09:21:38.405Z,11.33
2023-04-03T09:24:07.845Z,11.54
2023-04-03T09:26:44.695Z,11.68
2023-04-03T09:29:18.372Z,11.79
2023-04-03T09:31:46.195Z,11.85
2023-04-03T09:34:28.681Z,11.78
2023-04-03T09:36:57.380Z,11.68
2023-04-03T09:39:29.556Z,11.55
2023-04-03T09:41:56.048Z,11.37
2023-04-03T09:44:29.488Z,11.25
2023-04-03T09:46:56.051Z,11.13
2023-04-03T09:49:23.155Z,11.03
2023-04-03T09:51:49.864Z,10.91
2023-04-03T09:54:45.641Z,10.83
2023-04-03T09:57:15.477Z,10.94
2023-04-03T10:00:00.919Z,11.15
2023-04-03T10:02:38.613Z,11.42
2023-04-03T10:05:35.598Z,11.63
2023-04-03T10:08:14.561Z,12.04
2023-04-03T10:10:50.970Z,12.69
2023-04-03T10:13:21.439Z,13.14
2023-04-03T10:16:04.212Z,13.75
2023-04-03T10:18:41.280Z,14.15
2023-04-03T10:21:26.606Z,14.39
2023-04-03T10:24:03.813Z,15.35
2023-04-03T10:26:48.752Z,15.79
2023-04-03T10:29:58.004Z,15.79
2023-04-03T10:32:45.902Z,15.44
2023-04-03T10:35:29.758Z,15.07
2023-04-03T10:38:14.799Z,14.62
2023-04-03T10:41:01.538Z,14.23
2023-04-03T10:43:55.328Z,13.80
2023-04-03T10:46:37.056Z,13.54
2023-04-03T10:49:13.022Z,13.30
2023-04-03T10:51:42.560Z,12.97
2023-04-03T10:54:13.543Z,12.75
2023-04-03T10:57:11.017Z,12.60
2023-04-03T10:59:52.900Z,12.48
2023-04-03T11:02:37.810Z,12.28
2023-04-03T11:05:19.820Z,12.20
2023-04-03T11:07:53.808Z,12.16
2023-04-03T11:10:39.701Z,12.00
2023-04-03T11:13:15.291Z,11.81
2023-04-03T11:15:42.540Z,11.63
2023-04-03T11:18:18.251Z,11.55
2023-04-03T11:21:01.833Z,11.51
2023-04-03T11:23:49.431Z,11.44
2023-04-03T11:26:28.315Z,11.39
2023-04-03T11:29:04.255Z,11.44
2023-04-03T11:31:43.538Z,11.55
2023-04-03T11:34:47.772Z,11.65
2023-04-03T11:37:35.734Z,11.81
2023-04-03T11:40:23.703Z,12.01
2023-04-03T11:45:53.573Z,12.70
2023-04-03T11:48:24.853Z,12.89
2023-04-03T11:50:52.159Z,13.05
2023-04-03T11:53:37.619Z,13.08
2023-04-03T11:56:25.235Z,13.08
2023-04-03T11:59:11.977Z,13.07
2023-04-03T12:01:56.355Z,13.04
2023-04-03T12:04:25.934Z,12.98
2023-04-03T12:07:14.566Z,12.89
2023-04-03T12:09:41.170Z,12.81
2023-04-03T12:12:40.506Z,12.76
2023-04-03T12:15:24.335Z,12.72
2023-04-03T12:17:51.810Z,12.67
2023-04-03T12:20:49.393Z,12.60
2023-04-03T12:23:34.563Z,12.51
2023-04-03T12:26:32.416Z,12.41
2023-04-03T12:29:17.655Z,12.36
2023-04-03T12:32:04.585Z,12.22
2023-04-03T12:34:39.881Z,12.11
2023-04-03T12:37:34.376Z,12.03
2023-04-03T12:40:25.357Z,11.99
2023-04-03T12:43:31.108Z,12.00
2023-04-03T12:46:02.810Z,12.06
2023-04-03T12:48:32.408Z,12.06
2023-04-03T12:51:00.806Z,11.99
2023-04-03T12:53:37.976Z,11.98
2023-04-03T12:56:40.181Z,11.96
2023-04-03T12:59:15.626Z,11.84
2023-04-03T13:01:43.182Z,11.81
2023-04-03T13:04:12.491Z,11.85
2023-04-03T13:06:42.048Z,11.88
2023-04-03T13:09:19.937Z,11.95
2023-04-03T13:11:46.556Z,12.00
2023-04-03T13:14:25.150Z,12.01
2023-04-03T13:16:57.914Z,11.98
2023-04-03T13:19:29.951Z,11.98
2023-04-03T13:22:05.821Z,12.04
2023-04-03T13:24:36.504Z,12.09
2023-04-03T13:27:04.051Z,12.14
2023-04-03T13:29:34.382Z,12.20
2023-04-03T13:32:02.397Z,12.21
2023-04-03T13:34:45.837Z,12.22
2023-04-03T13:37:29.790Z,12.25
2023-04-03T13:40:13.482Z,12.20
2023-04-03T13:42:42.226Z,12.20
2023-04-03T13:45:26.898Z,12.22
2023-04-03T13:47:55.265Z,12.28
2023-04-03T13:50:24.540Z,12.39
2023-04-03T13:53:00.557Z,12.50
2023-04-03T13:55:29.933Z,12.54
2023-04-03T13:58:20.376Z,12.51
2023-04-03T14:01:00.431Z,12.59
2023-04-03T14:03:46.540Z,12.81
2023-04-03T14:06:16.549Z,13.05
2023-04-03T14:08:44.054Z,13.16
2023-04-03T14:11:20.246Z,13.24
2023-04-03T14:13:48.060Z,13.35
2023-04-03T14:16:23.521Z,13.45
2023-04-03T14:18:51.182Z,13.50
2023-04-03T14:21:20.166Z,13.49
2023-04-03T14:23:47.109Z,13.46
2023-04-03T14:26:16.219Z,13.41
2023-04-03T14:28:45.179Z,13.34
2023-04-03T14:31:14.272Z,13.30
2023-04-03T14:33:41.423Z,13.27
2023-04-03T14:36:16.720Z,13.22
2023-04-03T14:38:45.152Z,13.16
2023-04-03T14:41:16.979Z,13.09
2023-04-03T14:43:45.068Z,13.02
2023-04-03T14:46:18.251Z,12.88
2023-04-03T14:48:45.563Z,12.71
2023-04-03T14:51:13.923Z,12.51
2023-04-03T14:53:42.494Z,12.38
2023-04-03T14:56:15.201Z,12.30
2023-04-03T14:58:41.748Z,12.24
2023-04-03T15:01:11.180Z,12.18
2023-04-03T15:03:37.942Z,12.12
2023-04-03T15:06:04.868Z,12.04
2023-04-03T15:08:31.467Z,11.96
2023-04-03T15:10:58.491Z,11.91
2023-04-03T15:13:26.008Z,11.85
2023-04-03T15:15:53.576Z,11.80
2023-04-03T15:18:24.058Z,11.77
2023-04-03T15:20:50.829Z,11.75
2023-04-03T15:23:17.767Z,11.74
2023-04-03T15:25:47.129Z,11.72
2023-04-03T15:28:21.024Z,11.68
2023-04-03T15:30:47.656Z,11.63
2023-04-03T15:33:14.802Z,11.58
2023-04-03T15:35:41.872Z,11.51
2023-04-03T15:38:09.095Z,11.47
2023-04-03T15:40:35.600Z,11.43
2023-04-03T15:43:02.114Z,11.40
2023-04-03T15:45:32.951Z,11.34
2023-04-03T15:47:59.937Z,11.28
2023-04-03T15:50:26.922Z,11.23
2023-04-03T15:52:54.385Z,11.17
2023-04-03T15:55:23.472Z,11.13
2023-04-03T15:57:50.108Z,11.10
2023-04-03T16:00:16.987Z,11.04
2023-04-03T16:02:45.865Z,11.01
2023-04-03T16:05:14.281Z,11.01
2023-04-03T16:07:41.060Z,10.99
2023-04-03T16:10:09.397Z,10.94
2023-04-03T16:12:36.432Z,10.87
2023-04-03T16:15:03.885Z,10.81
2023-04-03T16:17:32.092Z,10.72
2023-04-03T16:19:59.158Z,10.63
2023-04-03T16:22:26.985Z,10.51
2023-04-03T16:24:53.581Z,10.38
2023-04-03T16:27:20.848Z,10.28
2023-04-03T16:29:47.540Z,10.19
2023-04-03T16:32:14.832Z,10.11
2023-04-03T16:34:42.419Z,10.02
2023-04-03T16:37:09.438Z,9.93
2023-04-03T16:39:36.316Z,9.83
2023-04-03T16:42:02.856Z,9.73
2023-04-03T16:44:29.337Z,9.66
2023-04-03T16:46:55.865Z,9.58
2023-04-03T16:49:22.424Z,9.49
2023-04-03T16:51:50.092Z,9.40
2023-04-03T16:54:16.616Z,9.31
2023-04-03T16:56:43.118Z,9.23
2023-04-03T16:59:09.728Z,9.16
2023-04-03T17:01:36.309Z,9.09
2023-04-03T17:04:02.878Z,9.01
2023-04-03T17:06:29.772Z,8.95
2023-04-03T17:08:56.300Z,8.92
2023-04-03T17:11:22.928Z,8.90
2023-04-03T17:13:49.444Z,8.85
2023-04-03T17:16:17.062Z,8.81
2023-04-03T17:18:43.831Z,8.75
2023-04-03T17:21:11.475Z,8.73
2023-04-03T17:23:40.061Z,8.70
2023-04-03T17:26:06.581Z,8.68
2023-04-03T17:28:33.117Z,8.67
2023-04-03T17:31:01.869Z,8.65
2023-04-03T17:33:29.777Z,8.65
2023-04-03T17:36:04.162Z,8.61
2023-04-03T17:38:34.007Z,8.55
2023-04-03T17:41:07.650Z,8.48
2023-04-03T17:43:35.563Z,8.45
2023-04-03T17:46:04.894Z,8.42
2023-04-03T17:48:33.195Z,8.39
2023-04-03T17:51:03.434Z,8.38
2023-04-03T17:53:29.964Z,8.35
2023-04-03T17:55:56.437Z,8.30
2023-04-03T17:58:27.191Z,8.26
2023-04-03T18:00:53.710Z,8.23
2023-04-03T18:03:20.250Z,8.18
2023-04-03T18:05:46.721Z,8.13
2023-04-03T18:08:13.200Z,8.11
2023-04-03T18:10:41.004Z,8.07
2023-04-03T18:13:08.658Z,8.04
2023-04-03T18:15:35.583Z,8.01
2023-04-03T18:18:02.180Z,7.99
2023-04-03T18:20:28.937Z,7.94
2023-04-03T18:22:55.408Z,7.92
2023-04-03T18:25:21.949Z,7.87
2023-04-03T18:27:48.641Z,7.82
2023-04-03T18:30:17.268Z,7.76
2023-04-03T18:32:43.790Z,7.69
2023-04-03T18:35:10.496Z,7.62
2023-04-03T18:37:37.029Z,7.59
2023-04-03T18:40:03.727Z,7.57
2023-04-03T18:42:30.353Z,7.54
2023-04-03T18:45:01.187Z,7.50
2023-04-03T18:47:28.871Z,7.48
2023-04-03T18:49:56.637Z,7.45
2023-04-03T18:52:23.362Z,7.42
2023-04-03T18:54:49.891Z,7.38
2023-04-03T18:57:16.402Z,7.31
2023-04-03T18:59:42.962Z,7.25
2023-04-03T19:02:09.793Z,7.19
2023-04-03T19:04:36.895Z,7.13
2023-04-03T19:07:03.770Z,7.09
2023-04-03T19:09:30.454Z,7.03
2023-04-03T19:11:57.101Z,6.98
2023-04-03T19:14:23.825Z,6.95
2023-04-03T19:16:50.338Z,6.92
2023-04-03T19:19:16.837Z,6.88
2023-04-03T19:21:43.388Z,6.85
2023-04-03T19:24:12.644Z,6.80
2023-04-03T19:26:40.749Z,6.78
2023-04-03T19:29:08.702Z,6.76
2023-04-03T19:31:36.628Z,6.74
2023-04-03T19:34:03.733Z,6.70
2023-04-03T19:36:31.383Z,6.66
2023-04-03T19:38:57.906Z,6.63
2023-04-03T19:41:27.252Z,6.61
2023-04-03T19:43:55.366Z,6.55
2023-04-03T19:46:26.538Z,6.51
2023-04-03T19:48:53.194Z,6.49
2023-04-03T19:51:19.897Z,6.46
2023-04-03T19:53:46.404Z,6.42
2023-04-03T19:56:13.301Z,6.36
2023-04-03T19:58:39.806Z,6.32
2023-04-03T20:01:06.497Z,6.28
2023-04-03T20:03:33.084Z,6.24
2023-04-03T20:06:01.625Z,6.20
2023-04-03T20:08:29.270Z,6.16
2023-04-03T20:10:55.843Z,6.12
2023-04-03T20:13:22.447Z,6.06
2023-04-03T20:15:49.236Z,6.00
2023-04-03T20:18:20.302Z,5.91
2023-04-03T20:20:53.767Z,5.82
2023-04-03T20:23:20.772Z,5.73
2023-04-03T20:26:01.469Z,5.66
2023-04-03T20:28:36.003Z,5.60
2023-04-03T20:31:02.598Z,5.55
2023-04-03T20:33:29.252Z,5.48
2023-04-03T20:35:57.099Z,5.42
2023-04-03T20:38:24.285Z,5.38
2023-04-03T20:40:50.766Z,5.35
2023-04-03T20:43:17.267Z,5.33
2023-04-03T20:45:43.801Z,5.31
2023-04-03T20:48:11.023Z,5.29
2023-04-03T20:50:37.589Z,5.24
2023-04-03T20:53:04.164Z,5.19
2023-04-03T20:55:30.710Z,5.12
2023-04-03T20:57:59.152Z,5.09
2023-04-03T21:00:26.043Z,5.05
2023-04-03T21:02:52.613Z,4.97
2023-04-03T21:05:19.457Z,4.92
2023-04-03T21:08:23.321Z,4.87
2023-04-03T21:11:27.126Z,4.83
2023-04-03T21:14:31.183Z,4.79
2023-04-03T21:16:57.709Z,4.75
2023-04-03T21:19:24.495Z,4.72
2023-04-03T21:21:51.069Z,4.69
2023-04-03T21:24:18.245Z,4.68
2023-04-03T21:26:45.618Z,4.66
2023-04-03T21:29:12.276Z,4.63
2023-04-03T21:31:56.620Z,4.59
2023-04-03T21:34:24.846Z,4.56
2023-04-03T21:36:51.382Z,4.52
2023-04-03T21:39:18.063Z,4.50
2023-04-03T21:41:44.598Z,4.48
2023-04-03T21:44:11.064Z,4.46
2023-04-03T21:46:37.576Z,4.45
2023-04-03T21:49:04.230Z,4.43
2023-04-03T21:51:30.690Z,4.42
2023-04-03T21:53:57.423Z,4.42
2023-04-03T21:56:24.191Z,4.41
2023-04-03T21:58:51.406Z,4.39
2023-04-03T22:01:19.147Z,4.37
2023-04-03T22:03:47.164Z,4.35
2023-04-03T22:06:16.028Z,4.32
2023-04-03T22:08:43.129Z,4.29
2023-04-03T22:11:13.866Z,4.28
2023-04-03T22:13:41.705Z,4.26
2023-04-03T22:16:09.652Z,4.24
2023-04-03T22:18:36.288Z,4.21
2023-04-03T22:21:02.773Z,4.17
2023-04-03T22:23:29.286Z,4.14
2023-04-03T22:26:09.248Z,4.13
2023-04-03T22:28:41.794Z,4.13
2023-04-03T22:31:08.533Z,4.13
2023-04-03T22:33:38.312Z,4.13
2023-04-03T22:36:06.030Z,4.13
2023-04-03T22:38:33.005Z,4.12
2023-04-03T22:41:01.802Z,4.12
2023-04-03T22:43:30.073Z,4.11
2023-04-03T22:45:57.140Z,4.11
2023-04-03T22:48:24.306Z,4.12
2023-04-03T22:50:51.682Z,4.12
2023-04-03T22:53:18.786Z,4.12
2023-04-03T22:55:56.921Z,4.10
2023-04-03T22:58:23.904Z,4.07
2023-04-03T23:00:50.414Z,4.05
2023-04-03T23:03:16.902Z,4.01
2023-04-03T23:05:43.401Z,3.97
2023-04-03T23:08:09.890Z,3.95
2023-04-03T23:10:36.492Z,3.92
2023-04-03T23:13:03.048Z,3.89
2023-04-03T23:15:29.611Z,3.86
2023-04-03T23:17:56.130Z,3.83
2023-04-03T23:20:22.656Z,3.81
2023-04-03T23:22:49.135Z,3.77
2023-04-03T23:25:15.710Z,3.68
2023-04-03T23:27:42.151Z,3.61
2023-04-03T23:30:09.235Z,3.57
2023-04-03T23:32:35.703Z,3.54
2023-04-03T23:35:02.164Z,3.47
2023-04-03T23:37:28.658Z,3.40
2023-04-03T23:39:55.150Z,3.35
2023-04-03T23:42:21.635Z,3.30
2023-04-03T23:44:48.151Z,3.22
2023-04-03T23:47:14.712Z,3.12
2023-04-03T23:49:41.312Z,3.05
2023-04-03T23:52:07.797Z,2.98
2023-04-03T23:54:34.242Z,2.92
2023-04-03T23:57:00.767Z,2.87
2023-04-03T23:59:27.285Z,2.86
